createdAt,value
2023-02-07T00:00:59.628Z,101148.23
2023-02-07T00:03:52.195Z,101154.91
2023-02-07T00:06:44.298Z,101137.66
2023-02-07T00:09:37.378Z,101143.73
2023-02-07T00:12:29.472Z,101146.66
2023-02-07T00:15:07.707Z,101147.89
2023-02-07T00:17:59.802Z,101138.42
2023-02-07T00:21:02.092Z,101128.77
2023-02-07T00:23:54.709Z,101130.66
2023-02-07T00:26:47.305Z,101136.23
2023-02-07T00:29:19.456Z,101132.45
2023-02-07T00:32:11.556Z,101139.04
2023-02-07T00:35:03.930Z,101143.53
2023-02-07T00:37:39.116Z,101145.09
2023-02-07T00:40:31.478Z,101141.63
2023-02-07T00:43:29.734Z,101143.87
2023-02-07T00:46:22.384Z,101138.54
2023-02-07T00:49:14.663Z,101139.74
2023-02-07T00:52:07.149Z,101135.76
2023-02-07T00:54:59.293Z,101132.61
2023-02-07T00:57:51.383Z,101138.46
2023-02-07T01:00:43.738Z,101131.00
2023-02-07T01:03:36.122Z,101122.67
2023-02-07T01:06:29.633Z,101122.28
2023-02-07T01:09:21.748Z,101107.73
2023-02-07T01:12:13.817Z,101105.10
2023-02-07T01:14:56.928Z,101104.70
2023-02-07T01:17:49.278Z,101099.79
2023-02-07T01:20:41.775Z,101095.20
2023-02-07T01:23:22.639Z,101098.48
2023-02-07T01:25:57.312Z,101091.95
2023-02-07T01:28:49.493Z,101093.52
2023-02-07T01:31:43.673Z,101082.15
2023-02-07T01:34:36.388Z,101080.95
2023-02-07T01:37:28.868Z,101078.57
2023-02-07T01:40:12.966Z,101073.93
2023-02-07T01:43:05.729Z,101071.19
2023-02-07T01:45:57.885Z,101073.97
2023-02-07T01:48:38.184Z,101081.41
2023-02-07T01:51:27.549Z,101087.11
2023-02-07T01:54:12.512Z,101088.29
2023-02-07T01:57:08.097Z,101086.04
2023-02-07T02:00:01.425Z,101091.53
2023-02-07T02:02:33.564Z,101094.28
2023-02-07T02:05:26.227Z,101092.39
2023-02-07T02:08:18.311Z,101092.77
2023-02-07T02:11:26.763Z,101094.00
2023-02-07T02:14:32.465Z,101087.45
2023-02-07T02:17:42.454Z,101082.73
2023-02-07T02:21:27.372Z,101082.20
2023-02-07T02:24:29.859Z,101081.46
2023-02-07T02:27:35.170Z,101088.69
2023-02-07T02:30:40.432Z,101098.83
2023-02-07T02:33:48.530Z,101107.36
2023-02-07T02:36:41.432Z,101100.94
2023-02-07T02:39:40.291Z,101096.73
2023-02-07T02:42:40.714Z,101089.77
2023-02-07T02:45:19.722Z,101093.86
2023-02-07T02:47:52.880Z,101093.23
2023-02-07T02:50:49.541Z,101089.09
2023-02-07T02:53:41.731Z,101092.02
2023-02-07T02:56:57.009Z,101089.97
2023-02-07T03:00:13.561Z,101092.73
2023-02-07T03:03:24.079Z,101093.79
2023-02-07T03:06:30.241Z,101097.62
2023-02-07T03:09:36.504Z,101098.48
2023-02-07T03:12:33.622Z,101094.20
2023-02-07T03:15:34.894Z,101091.16
2023-02-07T03:18:20.092Z,101088.11
2023-02-07T03:21:18.570Z,101086.95
2023-02-07T03:24:15.281Z,101090.58
2023-02-07T03:27:12.556Z,101099.38
2023-02-07T03:30:10.071Z,101107.64
2023-02-07T03:33:10.322Z,101109.87
2023-02-07T03:36:09.586Z,101106.95
2023-02-07T03:38:44.880Z,101105.39
2023-02-07T03:41:33.915Z,101108.52
2023-02-07T03:44:28.157Z,101106.80
2023-02-07T03:47:21.284Z,101105.44
2023-02-07T03:50:14.072Z,101100.94
2023-02-07T03:52:48.660Z,101109.74
2023-02-07T03:55:20.982Z,101106.65
2023-02-07T03:58:01.711Z,101115.09
2023-02-07T04:00:53.904Z,101122.86
2023-02-07T04:03:46.489Z,101121.80
2023-02-07T04:06:39.083Z,101128.86
2023-02-07T04:09:13.684Z,101127.09
2023-02-07T04:12:06.628Z,101124.26
2023-02-07T04:14:58.668Z,101116.02
2023-02-07T04:17:40.080Z,101109.48
2023-02-07T04:20:32.228Z,101103.80
2023-02-07T04:23:13.387Z,101114.33
2023-02-07T04:25:56.521Z,101118.30
2023-02-07T04:28:48.675Z,101117.11
2023-02-07T04:31:42.538Z,101115.40
2023-02-07T04:34:34.904Z,101112.30
2023-02-07T04:37:09.693Z,101107.81
2023-02-07T04:40:01.769Z,101104.33
2023-02-07T04:42:53.873Z,101097.97
2023-02-07T04:45:46.639Z,101090.38
2023-02-07T04:48:40.029Z,101091.38
2023-02-07T04:51:23.040Z,101102.35
2023-02-07T04:53:55.048Z,101110.98
2023-02-07T04:56:47.201Z,101116.80
2023-02-07T04:59:22.198Z,101115.73
2023-02-07T05:01:56.823Z,101118.95
2023-02-07T05:04:31.990Z,101113.13
2023-02-07T05:07:24.132Z,101111.63
2023-02-07T05:10:16.404Z,101118.38
2023-02-07T05:12:51.384Z,101115.34
2023-02-07T05:15:43.623Z,101113.30
2023-02-07T05:18:35.776Z,101114.19
2023-02-07T05:21:27.976Z,101118.85
2023-02-07T05:24:20.296Z,101109.70
2023-02-07T05:27:12.401Z,101110.88
2023-02-07T05:30:04.845Z,101112.42
2023-02-07T05:32:57.182Z,101107.27
2023-02-07T05:35:39.307Z,101112.98
2023-02-07T05:38:31.958Z,101119.57
2023-02-07T05:41:24.129Z,101118.55
2023-02-07T05:44:16.312Z,101116.88
2023-02-07T05:46:52.639Z,101120.73
2023-02-07T05:49:35.272Z,101118.02
2023-02-07T05:52:07.670Z,101121.49
2023-02-07T05:54:59.742Z,101125.63
2023-02-07T05:57:51.846Z,101124.24
2023-02-07T06:00:27.120Z,101129.93
2023-02-07T06:03:19.229Z,101123.58
2023-02-07T06:06:11.705Z,101123.79
2023-02-07T06:09:03.818Z,101122.27
2023-02-07T06:11:56.533Z,101122.45
2023-02-07T06:14:48.623Z,101123.30
2023-02-07T06:17:40.882Z,101130.41
2023-02-07T06:20:22.728Z,101136.44
2023-02-07T06:23:14.861Z,101136.78
2023-02-07T06:26:07.220Z,101140.05
2023-02-07T06:28:59.274Z,101145.73
2023-02-07T06:31:47.866Z,101137.42
2023-02-07T06:34:28.453Z,101138.63
2023-02-07T06:37:20.571Z,101135.81
2023-02-07T06:40:13.851Z,101135.42
2023-02-07T06:43:07.695Z,101148.20
2023-02-07T06:46:01.098Z,101155.45
2023-02-07T06:48:43.694Z,101155.48
2023-02-07T06:51:35.904Z,101157.06
2023-02-07T06:54:28.225Z,101160.74
2023-02-07T06:57:20.355Z,101159.09
2023-02-07T07:00:14.587Z,101163.92
2023-02-07T07:03:06.890Z,101163.78
2023-02-07T07:05:59.821Z,101171.08
2023-02-07T07:08:52.030Z,101171.29
2023-02-07T07:11:32.899Z,101168.38
2023-02-07T07:14:25.243Z,101170.65
2023-02-07T07:17:17.358Z,101172.39
2023-02-07T07:20:11.647Z,101160.11
2023-02-07T07:23:03.717Z,101159.58
2023-02-07T07:25:47.093Z,101159.25
2023-02-07T07:28:30.591Z,101158.74
2023-02-07T07:31:09.862Z,101157.02
2023-02-07T07:33:50.696Z,101154.59
2023-02-07T07:36:43.192Z,101148.38
2023-02-07T07:39:35.667Z,101142.32
2023-02-07T07:42:27.819Z,101140.23
2023-02-07T07:45:20.549Z,101143.01
2023-02-07T07:48:12.758Z,101149.40
2023-02-07T07:50:50.211Z,101149.92
2023-02-07T07:53:42.378Z,101154.95
2023-02-07T07:56:23.192Z,101153.05
2023-02-07T07:59:23.653Z,101152.01
2023-02-07T08:02:16.281Z,101143.54
2023-02-07T08:04:58.216Z,101140.77
2023-02-07T08:07:40.267Z,101140.77
2023-02-07T08:10:32.482Z,101143.20
2023-02-07T08:13:13.209Z,101144.56
2023-02-07T08:16:08.547Z,101143.70
2023-02-07T08:18:50.549Z,101145.95
2023-02-07T08:21:44.723Z,101134.55
2023-02-07T08:24:37.045Z,101132.29
2023-02-07T08:27:09.059Z,101128.65
2023-02-07T08:29:45.773Z,101128.29
2023-02-07T08:32:36.353Z,101129.30
2023-02-07T08:35:17.145Z,101128.77
2023-02-07T08:38:09.354Z,101132.05
2023-02-07T08:40:46.854Z,101126.68
2023-02-07T08:43:39.206Z,101132.22
2023-02-07T08:46:11.470Z,101138.96
2023-02-07T08:49:03.629Z,101139.11
2023-02-07T08:51:45.276Z,101141.19
2023-02-07T08:54:37.460Z,101143.78
2023-02-07T08:57:29.429Z,101142.91
2023-02-07T09:00:22.051Z,101141.51
2023-02-07T09:03:15.239Z,101141.66
2023-02-07T09:06:08.435Z,101141.64
2023-02-07T09:08:50.694Z,101134.48
2023-02-07T09:11:42.913Z,101133.42
2023-02-07T09:14:35.275Z,101128.56
2023-02-07T09:17:28.035Z,101126.83
2023-02-07T09:20:20.464Z,101126.64
2023-02-07T09:23:19.288Z,101127.50
2023-02-07T09:26:18.230Z,101130.23
2023-02-07T09:29:00.256Z,101128.30
2023-02-07T09:31:52.508Z,101127.40
2023-02-07T09:34:44.724Z,101123.05
2023-02-07T09:37:48.719Z,101125.80
2023-02-07T09:40:42.182Z,101122.67
2023-02-07T09:43:46.420Z,101120.05
2023-02-07T09:46:42.355Z,101122.45
2023-02-07T09:49:40.023Z,101120.18
2023-02-07T09:52:36.466Z,101114.77
2023-02-07T09:55:20.648Z,101103.05
2023-02-07T09:58:18.619Z,101098.49
2023-02-07T10:01:15.512Z,101096.90
2023-02-07T10:04:29.153Z,101094.25
2023-02-07T10:07:08.697Z,101096.81
2023-02-07T10:10:00.901Z,101093.84
2023-02-07T10:13:08.689Z,101095.04
2023-02-07T10:16:17.814Z,101088.77
2023-02-07T10:19:27.822Z,101082.12
2023-02-07T10:22:28.008Z,101079.45
2023-02-07T10:25:33.857Z,101076.80
2023-02-07T10:28:50.613Z,101071.84
2023-02-07T10:31:48.566Z,101066.00
2023-02-07T10:34:29.595Z,101059.86
2023-02-07T10:37:20.077Z,101055.98
2023-02-07T10:40:17.984Z,101059.05
2023-02-07T10:43:26.934Z,101057.63
2023-02-07T10:46:22.905Z,101052.19
2023-02-07T10:49:24.723Z,101052.32
2023-02-07T10:52:30.666Z,101054.57
2023-02-07T10:55:38.483Z,101050.70
2023-02-07T10:58:40.615Z,101058.66
2023-02-07T11:01:35.164Z,101056.33
2023-02-07T11:04:37.951Z,101052.59
2023-02-07T11:07:19.015Z,101055.46
2023-02-07T11:10:17.044Z,101047.71
2023-02-07T11:13:15.918Z,101042.58
2023-02-07T11:16:10.541Z,101050.81
2023-02-07T11:18:59.437Z,101057.16
2023-02-07T11:21:43.941Z,101056.56
2023-02-07T11:24:38.329Z,101059.61
2023-02-07T11:27:37.885Z,101051.88
2023-02-07T11:30:20.560Z,101050.77
2023-02-07T11:33:23.604Z,101050.17
2023-02-07T11:36:26.130Z,101054.11
2023-02-07T11:39:22.536Z,101058.98
2023-02-07T11:42:02.121Z,101063.52
2023-02-07T11:44:54.757Z,101066.44
2023-02-07T11:47:50.204Z,101068.67
2023-02-07T11:50:56.491Z,101065.70
2023-02-07T11:53:52.291Z,101059.91
2023-02-07T11:56:49.735Z,101063.81
2023-02-07T11:59:50.908Z,101067.79
2023-02-07T12:02:45.939Z,101063.94
2023-02-07T12:05:41.938Z,101065.32
2023-02-07T12:08:37.210Z,101053.66
2023-02-07T12:11:36.186Z,101052.05
2023-02-07T12:14:34.604Z,101054.75
2023-02-07T12:17:33.245Z,101045.66
2023-02-07T12:20:28.671Z,101048.23
2023-02-07T12:23:41.872Z,101048.41
2023-02-07T12:26:44.485Z,101044.91
2023-02-07T12:29:50.358Z,101040.16
2023-02-07T12:32:48.288Z,101034.02
2023-02-07T12:35:56.919Z,101031.38
2023-02-07T12:38:54.976Z,101032.40
2023-02-07T12:41:51.610Z,101035.66
2023-02-07T12:44:50.892Z,101027.06
2023-02-07T12:47:50.924Z,101026.48
2023-02-07T12:50:57.257Z,101022.45
2023-02-07T12:54:04.135Z,101016.00
2023-02-07T12:57:04.420Z,101014.41
2023-02-07T13:00:05.474Z,101010.06
2023-02-07T13:03:14.663Z,101011.41
2023-02-07T13:06:23.203Z,101010.83
2023-02-07T13:09:26.022Z,101007.83
2023-02-07T13:12:07.546Z,101009.03
2023-02-07T13:15:10.210Z,101014.96
2023-02-07T13:18:08.822Z,101010.74
2023-02-07T13:21:13.386Z,101009.21
2023-02-07T13:24:09.186Z,101008.58
2023-02-07T13:26:53.099Z,101016.77
2023-02-07T13:29:31.864Z,101021.31
2023-02-07T13:32:26.613Z,101022.41
2023-02-07T13:35:23.658Z,101028.88
2023-02-07T13:38:23.137Z,101029.59
2023-02-07T13:41:23.998Z,101030.35
2023-02-07T13:44:20.341Z,101032.16
2023-02-07T13:47:24.428Z,101035.98
2023-02-07T13:50:25.307Z,101028.39
2023-02-07T13:53:20.992Z,101023.89
2023-02-07T13:56:33.519Z,101021.17
2023-02-07T13:59:39.677Z,101023.84
2023-02-07T14:02:32.928Z,101023.48
2023-02-07T14:05:27.831Z,101018.80
2023-02-07T14:08:26.027Z,101014.61
2023-02-07T14:11:19.533Z,101009.09
2023-02-07T14:14:24.613Z,101006.79
2023-02-07T14:17:38.392Z,101011.08
2023-02-07T14:21:01.011Z,101012.84
2023-02-07T14:24:03.687Z,101017.10
2023-02-07T14:27:01.434Z,101013.73
2023-02-07T14:30:18.827Z,101010.58
2023-02-07T14:33:17.863Z,101009.36
2023-02-07T14:36:25.514Z,100997.81
2023-02-07T14:39:09.077Z,100993.73
2023-02-07T14:42:13.894Z,100987.02
2023-02-07T14:45:06.633Z,100984.63
2023-02-07T14:47:58.951Z,100982.79
2023-02-07T14:50:41.715Z,100980.62
2023-02-07T14:53:33.997Z,100980.06
2023-02-07T14:56:43.099Z,100992.89
2023-02-07T14:59:40.506Z,100993.31
2023-02-07T15:02:36.019Z,100987.96
2023-02-07T15:05:30.849Z,100992.92
2023-02-07T15:08:24.370Z,100999.68
2023-02-07T15:11:16.543Z,100995.08
2023-02-07T15:14:19.259Z,101002.45
2023-02-07T15:17:12.598Z,101007.46
2023-02-07T15:20:04.957Z,101010.35
2023-02-07T15:22:58.862Z,101021.41
2023-02-07T15:25:51.293Z,101027.08
2023-02-07T15:28:44.384Z,101035.14
2023-02-07T15:31:42.188Z,101039.21
2023-02-07T15:34:35.852Z,101041.90
2023-02-07T15:37:28.704Z,101044.44
2023-02-07T15:40:25.600Z,101045.73
2023-02-07T15:43:34.001Z,101044.18
2023-02-07T15:46:26.747Z,101044.38
2023-02-07T15:49:36.945Z,101047.73
2023-02-07T15:52:32.850Z,101052.09
2023-02-07T15:55:34.470Z,101058.34
2023-02-07T15:58:29.672Z,101061.83
2023-02-07T16:01:26.187Z,101063.55
2023-02-07T16:04:18.351Z,101060.80
2023-02-07T16:07:14.640Z,101067.58
2023-02-07T16:10:20.538Z,101065.66
2023-02-07T16:13:21.268Z,101070.19
2023-02-07T16:16:21.521Z,101067.94
2023-02-07T16:19:19.927Z,101072.82
2023-02-07T16:22:17.681Z,101077.54
2023-02-07T16:25:14.574Z,101087.64
2023-02-07T16:28:12.220Z,101083.48
2023-02-07T16:31:04.746Z,101092.91
2023-02-07T16:33:56.914Z,101098.83
2023-02-07T16:36:52.136Z,101099.90
2023-02-07T16:39:44.385Z,101102.89
2023-02-07T16:42:37.097Z,101107.10
2023-02-07T16:45:30.579Z,101101.39
2023-02-07T16:48:22.882Z,101103.17
2023-02-07T16:51:16.917Z,101103.70
2023-02-07T16:54:09.440Z,101106.15
2023-02-07T16:57:03.956Z,101105.31
2023-02-07T16:59:56.388Z,101105.49
2023-02-07T17:02:50.543Z,101112.80
2023-02-07T17:05:36.328Z,101107.26
2023-02-07T17:08:30.342Z,101111.78
2023-02-07T17:11:20.715Z,101113.52
2023-02-07T17:14:13.056Z,101110.32
2023-02-07T17:17:05.419Z,101110.93
2023-02-07T17:19:57.672Z,101116.93
2023-02-07T17:22:50.055Z,101123.11
2023-02-07T17:25:43.262Z,101125.96
2023-02-07T17:28:35.573Z,101123.04
2023-02-07T17:31:28.685Z,101128.55
2023-02-07T17:34:21.348Z,101128.17
2023-02-07T17:37:16.313Z,101129.71
2023-02-07T17:40:29.166Z,101126.23
2023-02-07T17:43:21.594Z,101127.52
2023-02-07T17:46:04.758Z,101122.17
2023-02-07T17:48:57.601Z,101116.48
2023-02-07T17:51:50.085Z,101120.70
2023-02-07T17:54:25.975Z,101132.11
2023-02-07T17:57:18.644Z,101133.11
2023-02-07T18:00:18.963Z,101140.36
2023-02-07T18:03:12.313Z,101144.10
2023-02-07T18:05:47.590Z,101146.29
2023-02-07T18:08:40.000Z,101144.59
2023-02-07T18:11:34.824Z,101138.02
2023-02-07T18:14:27.596Z,101145.92
2023-02-07T18:17:20.379Z,101149.45
2023-02-07T18:19:58.106Z,101152.10
2023-02-07T18:22:50.895Z,101159.08
2023-02-07T18:25:47.460Z,101160.48
2023-02-07T18:28:39.929Z,101163.48
2023-02-07T18:31:32.401Z,101163.69
2023-02-07T18:34:24.886Z,101163.20
2023-02-07T18:37:17.722Z,101165.11
2023-02-07T18:40:13.237Z,101171.91
2023-02-07T18:43:05.600Z,101178.02
2023-02-07T18:45:43.953Z,101180.48
2023-02-07T18:48:36.730Z,101180.98
2023-02-07T18:51:29.530Z,101181.48
2023-02-07T18:54:22.394Z,101182.52
2023-02-07T18:57:15.246Z,101179.21
2023-02-07T19:00:10.210Z,101183.96
2023-02-07T19:03:02.849Z,101181.89
2023-02-07T19:05:59.860Z,101179.42
2023-02-07T19:08:52.210Z,101173.86
2023-02-07T19:11:27.842Z,101175.42
2023-02-07T19:14:23.114Z,101175.41
2023-02-07T19:16:55.973Z,101178.71
2023-02-07T19:19:48.380Z,101177.52
2023-02-07T19:22:41.520Z,101178.60
2023-02-07T19:25:34.075Z,101181.05
2023-02-07T19:28:26.821Z,101177.39
2023-02-07T19:31:20.381Z,101178.98
2023-02-07T19:34:01.982Z,101180.56
2023-02-07T19:36:40.202Z,101178.65
2023-02-07T19:39:18.712Z,101181.24
2023-02-07T19:41:51.136Z,101183.33
2023-02-07T19:44:26.557Z,101178.30
2023-02-07T19:47:01.743Z,101184.23
2023-02-07T19:49:55.303Z,101187.88
2023-02-07T19:52:29.198Z,101192.85
2023-02-07T19:55:01.753Z,101190.35
2023-02-07T19:57:37.350Z,101189.54
2023-02-07T20:00:29.744Z,101193.55
2023-02-07T20:03:22.192Z,101193.10
2023-02-07T20:06:15.901Z,101199.95
2023-02-07T20:09:09.428Z,101205.45
2023-02-07T20:12:01.632Z,101208.77
2023-02-07T20:14:54.091Z,101213.81
2023-02-07T20:17:46.551Z,101213.65
2023-02-07T20:20:24.177Z,101209.31
2023-02-07T20:23:06.657Z,101209.52
2023-02-07T20:26:06.819Z,101207.86
2023-02-07T20:29:02.024Z,101213.70
2023-02-07T20:31:55.191Z,101213.43
2023-02-07T20:34:29.816Z,101213.66
2023-02-07T20:37:22.403Z,101216.64
2023-02-07T20:40:15.943Z,101217.23
2023-02-07T20:43:08.571Z,101217.05
2023-02-07T20:45:50.722Z,101216.36
2023-02-07T20:48:44.245Z,101211.52
2023-02-07T20:51:19.887Z,101210.83
2023-02-07T20:54:13.358Z,101210.72
2023-02-07T20:57:07.901Z,101210.76
2023-02-07T21:00:00.806Z,101215.77
2023-02-07T21:02:53.264Z,101222.90
2023-02-07T21:05:46.056Z,101220.80
2023-02-07T21:08:41.446Z,101219.05
2023-02-07T21:11:36.779Z,101217.99
2023-02-07T21:14:33.795Z,101220.44
2023-02-07T21:17:26.218Z,101223.23
2023-02-07T21:20:19.378Z,101221.66
2023-02-07T21:23:11.864Z,101229.33
2023-02-07T21:25:49.423Z,101232.63
2023-02-07T21:28:24.524Z,101232.64
2023-02-07T21:31:20.351Z,101235.75
2023-02-07T21:34:01.650Z,101237.66
2023-02-07T21:36:43.035Z,101240.30
2023-02-07T21:39:35.373Z,101235.27
2023-02-07T21:42:27.798Z,101236.84
2023-02-07T21:45:20.670Z,101233.22
2023-02-07T21:48:01.756Z,101242.65
2023-02-07T21:50:54.241Z,101241.27
2023-02-07T21:53:46.886Z,101245.77
2023-02-07T21:56:41.176Z,101242.65
2023-02-07T21:59:33.774Z,101247.64
2023-02-07T22:02:26.398Z,101241.89
2023-02-07T22:05:18.991Z,101239.72
2023-02-07T22:08:11.984Z,101243.30
2023-02-07T22:11:06.982Z,101237.91
2023-02-07T22:13:59.766Z,101242.34
2023-02-07T22:16:55.132Z,101245.87
2023-02-07T22:19:50.352Z,101246.13
2023-02-07T22:22:42.897Z,101248.19
2023-02-07T22:25:35.341Z,101246.41
2023-02-07T22:28:28.195Z,101248.29
2023-02-07T22:31:20.396Z,101245.54
2023-02-07T22:34:14.172Z,101242.28
2023-02-07T22:36:49.901Z,101247.42
2023-02-07T22:39:38.424Z,101240.99
2023-02-07T22:42:15.997Z,101250.77
2023-02-07T22:45:09.359Z,101254.64
2023-02-07T22:48:01.750Z,101252.59
2023-02-07T22:50:54.193Z,101248.30
2023-02-07T22:53:47.066Z,101243.27
2023-02-07T22:56:40.154Z,101244.91
2023-02-07T22:59:32.671Z,101249.50
2023-02-07T23:02:25.113Z,101241.95
2023-02-07T23:05:17.894Z,101244.17
2023-02-07T23:08:11.002Z,101243.80
2023-02-07T23:10:59.519Z,101243.98
2023-02-07T23:13:35.284Z,101249.08
2023-02-07T23:16:29.745Z,101242.45
2023-02-07T23:19:22.214Z,101239.13
2023-02-07T23:22:01.052Z,101239.66
2023-02-07T23:24:55.222Z,101238.95
2023-02-07T23:27:48.116Z,101240.67
2023-02-07T23:30:41.959Z,101238.92
2023-02-07T23:33:33.040Z,101235.31
2023-02-07T23:36:06.653Z,101234.13
2023-02-07T23:38:44.490Z,101233.23
2023-02-07T23:41:36.958Z,101238.27
2023-02-07T23:44:29.535Z,101240.54
2023-02-07T23:47:22.083Z,101241.91
2023-02-07T23:50:14.627Z,101236.17
2023-02-07T23:53:07.271Z,101234.60
2023-02-07T23:56:00.380Z,101237.41
2023-02-07T23:58:36.131Z,101240.02
